createdAt,value
2022-11-26T00:02:24.295Z,92.70
2022-11-26T00:04:53.613Z,93.51
2022-11-26T00:07:26.137Z,93.62
2022-11-26T00:09:55.742Z,93.02
2022-11-26T00:12:28.961Z,95.64
2022-11-26T00:14:57.333Z,92.78
2022-11-26T00:17:25.152Z,92.91
2022-11-26T00:19:53.037Z,91.68
2022-11-26T00:22:31.754Z,90.13
2022-11-26T00:24:59.931Z,90.52
2022-11-26T00:27:28.864Z,87.90
2022-11-26T00:29:56.960Z,88.51
2022-11-26T00:32:25.951Z,90.55
2022-11-26T00:34:54.351Z,92.75
2022-11-26T00:37:40.092Z,93.76
2022-11-26T00:40:17.352Z,92.78
2022-11-26T00:42:45.281Z,90.65
2022-11-26T00:45:19.431Z,89.00
2022-11-26T00:47:47.411Z,90.39
2022-11-26T00:50:20.512Z,87.57
2022-11-26T00:52:50.636Z,88.17
2022-11-26T00:55:25.079Z,87.12
2022-11-26T00:57:53.015Z,88.73
2022-11-26T01:00:24.762Z,90.86
2022-11-26T01:02:53.232Z,92.47
2022-11-26T01:05:23.341Z,92.87
2022-11-26T01:07:52.602Z,93.14
2022-11-26T01:10:26.901Z,91.78
2022-11-26T01:12:56.392Z,90.02
2022-11-26T01:15:26.060Z,88.50
2022-11-26T01:17:54.031Z,91.21
2022-11-26T01:20:30.460Z,90.96
2022-11-26T01:22:59.089Z,88.04
2022-11-26T01:25:27.941Z,84.69
2022-11-26T01:27:56.151Z,85.37
2022-11-26T01:30:26.612Z,87.12
2022-11-26T01:32:54.791Z,84.97
2022-11-26T01:35:23.062Z,82.84
2022-11-26T01:37:50.948Z,81.74
2022-11-26T01:40:53.452Z,87.03
2022-11-26T01:43:38.040Z,87.18
2022-11-26T01:46:14.682Z,86.68
2022-11-26T01:48:43.012Z,82.79
2022-11-26T01:51:12.512Z,82.12
2022-11-26T01:54:15.723Z,83.53
2022-11-26T01:56:46.615Z,88.00
2022-11-26T01:59:29.033Z,86.73
2022-11-26T02:01:59.323Z,87.57
2022-11-26T02:04:33.951Z,90.90
2022-11-26T02:07:02.252Z,89.11
2022-11-26T02:09:30.491Z,85.89
2022-11-26T02:11:58.250Z,86.40
2022-11-26T02:14:28.732Z,86.07
2022-11-26T02:17:16.822Z,86.04
2022-11-26T02:19:50.500Z,85.66
2022-11-26T02:22:27.791Z,86.53
2022-11-26T02:25:07.480Z,90.26
2022-11-26T02:27:35.500Z,91.51
2022-11-26T02:30:12.492Z,92.89
2022-11-26T02:33:03.435Z,93.13
2022-11-26T02:35:49.170Z,91.80
2022-11-26T02:38:21.012Z,91.53
2022-11-26T02:40:48.903Z,89.33
2022-11-26T02:43:17.420Z,88.62
2022-11-26T02:45:51.429Z,83.70
2022-11-26T02:48:26.951Z,81.18
2022-11-26T02:50:58.791Z,80.03
2022-11-26T02:53:29.241Z,84.72
2022-11-26T02:56:03.210Z,87.41
2022-11-26T02:58:32.195Z,87.22
2022-11-26T03:01:02.950Z,88.07
2022-11-26T03:03:38.508Z,87.42
2022-11-26T03:06:09.192Z,83.80
2022-11-26T03:08:38.090Z,84.82
2022-11-26T03:11:06.134Z,85.30
2022-11-26T03:13:34.110Z,85.88
2022-11-26T03:16:02.422Z,88.14
2022-11-26T03:18:30.551Z,86.21
2022-11-26T03:20:58.415Z,88.36
2022-11-26T03:23:26.562Z,89.78
2022-11-26T03:25:54.431Z,91.63
2022-11-26T03:28:22.330Z,91.35
2022-11-26T03:30:51.438Z,92.29
2022-11-26T03:33:19.700Z,91.24
2022-11-26T03:35:48.970Z,91.44
2022-11-26T03:38:17.634Z,90.53
2022-11-26T03:40:45.564Z,84.82
2022-11-26T03:43:13.322Z,86.14
2022-11-26T03:45:41.444Z,87.88
2022-11-26T03:48:09.412Z,85.46
2022-11-26T03:50:37.622Z,86.48
2022-11-26T03:53:05.752Z,87.31
2022-11-26T03:55:34.032Z,90.51
2022-11-26T03:58:01.874Z,87.44
2022-11-26T04:00:30.182Z,87.83
2022-11-26T04:02:58.500Z,82.65
2022-11-26T04:05:26.401Z,85.88
2022-11-26T04:07:55.356Z,85.84
2022-11-26T04:10:23.794Z,86.87
2022-11-26T04:12:52.122Z,87.59
2022-11-26T04:15:19.962Z,90.94
2022-11-26T04:17:48.160Z,89.48
2022-11-26T04:20:16.101Z,91.15
2022-11-26T04:22:43.912Z,90.28
2022-11-26T04:25:12.194Z,89.87
2022-11-26T04:27:40.042Z,92.80
2022-11-26T04:30:08.841Z,91.41
2022-11-26T04:32:40.055Z,89.30
2022-11-26T04:35:08.838Z,88.03
2022-11-26T04:37:36.653Z,87.94
2022-11-26T04:40:05.754Z,84.95
2022-11-26T04:42:33.629Z,84.47
2022-11-26T04:45:01.653Z,84.69
2022-11-26T04:47:29.805Z,84.15
2022-11-26T04:49:57.621Z,85.60
2022-11-26T04:52:25.422Z,89.71
2022-11-26T04:54:53.513Z,92.30
2022-11-26T04:57:21.485Z,91.51
2022-11-26T04:59:49.372Z,92.74
2022-11-26T05:02:17.504Z,91.46
2022-11-26T05:04:45.455Z,91.89
2022-11-26T05:07:13.299Z,89.81
2022-11-26T05:09:41.572Z,89.52
2022-11-26T05:12:09.652Z,92.19
2022-11-26T05:14:37.743Z,95.18
2022-11-26T05:17:06.271Z,93.04
2022-11-26T05:19:34.471Z,90.17
2022-11-26T05:22:02.405Z,88.75
2022-11-26T05:24:30.623Z,90.70
2022-11-26T05:26:58.501Z,90.80
2022-11-26T05:29:26.442Z,91.07
2022-11-26T05:31:54.713Z,91.75
2022-11-26T05:34:22.668Z,89.47
2022-11-26T05:36:50.467Z,87.20
2022-11-26T05:39:18.603Z,91.11
2022-11-26T05:41:46.394Z,89.71
2022-11-26T05:44:14.483Z,90.39
2022-11-26T05:46:43.271Z,93.48
2022-11-26T05:49:11.029Z,94.21
2022-11-26T05:51:38.862Z,91.39
2022-11-26T05:54:07.780Z,90.13
2022-11-26T05:56:35.633Z,90.43
2022-11-26T05:59:03.582Z,90.31
2022-11-26T06:01:31.703Z,90.73
2022-11-26T06:03:59.886Z,94.17
2022-11-26T06:06:28.047Z,94.75
2022-11-26T06:08:55.891Z,94.27
2022-11-26T06:11:24.041Z,94.20
2022-11-26T06:13:51.752Z,91.41
2022-11-26T06:16:19.594Z,89.64
2022-11-26T06:18:47.942Z,89.69
2022-11-26T06:21:15.831Z,88.77
2022-11-26T06:23:49.745Z,88.73
2022-11-26T06:26:21.252Z,91.49
2022-11-26T06:28:49.092Z,90.52
2022-11-26T06:31:17.034Z,88.78
2022-11-26T06:33:45.211Z,90.54
2022-11-26T06:36:13.348Z,90.14
2022-11-26T06:38:41.183Z,88.70
2022-11-26T06:41:09.378Z,88.08
2022-11-26T06:43:37.400Z,86.79
2022-11-26T06:46:08.059Z,86.35
2022-11-26T06:48:37.772Z,86.84
2022-11-26T06:51:07.360Z,86.75
2022-11-26T06:53:35.373Z,91.31
2022-11-26T06:56:14.846Z,91.51
2022-11-26T06:58:46.852Z,89.31
2022-11-26T07:01:18.158Z,88.38
2022-11-26T07:03:46.557Z,86.66
2022-11-26T07:06:21.662Z,93.16
2022-11-26T07:08:50.491Z,88.00
2022-11-26T07:11:18.505Z,85.86
2022-11-26T07:13:46.551Z,83.57
2022-11-26T07:16:15.021Z,87.10
2022-11-26T07:18:42.979Z,87.43
2022-11-26T07:21:12.270Z,91.31
2022-11-26T07:23:40.854Z,90.65
2022-11-26T07:26:09.849Z,91.76
2022-11-26T07:28:38.270Z,91.29
2022-11-26T07:31:16.191Z,93.39
2022-11-26T07:33:45.483Z,94.17
2022-11-26T07:36:19.387Z,89.32
2022-11-26T07:38:47.652Z,89.74
2022-11-26T07:41:18.647Z,88.09
2022-11-26T07:43:47.066Z,88.17
2022-11-26T07:46:18.378Z,88.22
2022-11-26T07:48:46.779Z,89.99
2022-11-26T07:51:22.347Z,88.18
2022-11-26T07:53:51.798Z,87.96
2022-11-26T07:56:20.119Z,89.45
2022-11-26T07:58:48.109Z,86.09
2022-11-26T08:01:22.342Z,91.13
2022-11-26T08:03:51.453Z,91.02
2022-11-26T08:06:24.428Z,89.26
2022-11-26T08:08:53.170Z,87.98
2022-11-26T08:11:23.692Z,86.37
2022-11-26T08:13:56.629Z,88.88
2022-11-26T08:16:28.477Z,89.68
2022-11-26T08:18:59.131Z,86.04
2022-11-26T08:21:28.050Z,91.22
2022-11-26T08:23:56.249Z,91.18
2022-11-26T08:26:37.353Z,90.31
2022-11-26T08:29:08.001Z,88.59
2022-11-26T08:31:38.979Z,87.52
2022-11-26T08:34:13.546Z,86.05
2022-11-26T08:36:41.469Z,87.72
2022-11-26T08:39:12.529Z,90.32
2022-11-26T08:41:41.171Z,89.34
2022-11-26T08:44:09.270Z,89.26
2022-11-26T08:46:38.832Z,86.41
2022-11-26T08:49:08.670Z,84.57
2022-11-26T08:51:36.560Z,86.23
2022-11-26T08:54:04.813Z,87.05
2022-11-26T08:56:34.340Z,87.39
2022-11-26T08:59:02.588Z,87.88
2022-11-26T09:01:35.228Z,84.94
2022-11-26T09:04:04.502Z,89.54
2022-11-26T09:06:34.149Z,88.61
2022-11-26T09:09:14.472Z,88.80
2022-11-26T09:11:57.763Z,86.55
2022-11-26T09:14:27.950Z,88.98
2022-11-26T09:16:57.533Z,89.22
2022-11-26T09:19:25.943Z,91.04
2022-11-26T09:21:53.919Z,87.89
2022-11-26T09:24:23.349Z,88.17
2022-11-26T09:26:51.299Z,87.67
2022-11-26T09:29:21.658Z,90.04
2022-11-26T09:34:39.404Z,91.31
2022-11-26T09:37:07.910Z,92.15
2022-11-26T09:39:35.891Z,89.14
2022-11-26T09:42:26.911Z,90.35
2022-11-26T09:45:19.201Z,86.89
2022-11-26T09:47:49.325Z,86.36
2022-11-26T09:50:38.718Z,83.72
2022-11-26T09:53:21.689Z,84.99
2022-11-26T09:55:52.661Z,88.17
2022-11-26T09:58:39.031Z,89.13
2022-11-26T10:01:07.778Z,89.39
2022-11-26T10:03:39.180Z,91.23
2022-11-26T10:06:10.180Z,87.41
2022-11-26T10:09:16.490Z,87.55
2022-11-26T10:11:50.280Z,89.23
2022-11-26T10:14:33.589Z,89.58
2022-11-26T10:17:16.590Z,88.28
2022-11-26T10:19:50.662Z,88.44
2022-11-26T10:22:29.448Z,87.86
2022-11-26T10:24:59.359Z,86.43
2022-11-26T10:27:31.085Z,86.50
2022-11-26T10:30:02.344Z,85.17
2022-11-26T10:32:40.550Z,86.15
2022-11-26T10:35:15.451Z,84.99
2022-11-26T10:37:43.399Z,85.33
2022-11-26T10:40:26.139Z,83.24
2022-11-26T10:43:09.131Z,84.38
2022-11-26T10:45:42.758Z,82.37
2022-11-26T10:48:31.058Z,82.32
2022-11-26T10:51:28.891Z,84.98
2022-11-26T10:54:03.610Z,87.27
2022-11-26T10:56:34.868Z,87.84
2022-11-26T10:59:17.599Z,89.02
2022-11-26T11:01:46.041Z,88.98
2022-11-26T11:04:25.120Z,90.21
2022-11-26T11:06:53.970Z,88.24
2022-11-26T11:09:35.169Z,89.78
2022-11-26T11:12:39.643Z,88.65
2022-11-26T11:15:23.679Z,89.62
2022-11-26T11:18:04.612Z,87.80
2022-11-26T11:20:35.757Z,88.90
2022-11-26T11:23:12.029Z,86.45
2022-11-26T11:25:42.440Z,87.23
2022-11-26T11:28:13.689Z,88.35
2022-11-26T11:30:42.461Z,89.55
2022-11-26T11:33:21.142Z,88.99
2022-11-26T11:36:13.690Z,89.83
2022-11-26T11:38:59.260Z,85.84
2022-11-26T11:41:34.057Z,84.60
2022-11-26T11:44:25.261Z,87.89
2022-11-26T11:47:05.228Z,89.43
2022-11-26T11:50:01.526Z,89.83
2022-11-26T11:52:57.536Z,88.20
2022-11-26T11:55:36.970Z,89.89
2022-11-26T11:58:07.979Z,88.13
2022-11-26T12:00:41.621Z,87.75
2022-11-26T12:03:28.540Z,85.59
2022-11-26T12:06:09.369Z,86.89
2022-11-26T12:09:15.329Z,87.03
2022-11-26T12:11:59.771Z,88.75
2022-11-26T12:14:27.984Z,88.10
2022-11-26T12:17:25.119Z,89.07
2022-11-26T12:20:00.054Z,86.51
2022-11-26T12:22:38.194Z,84.87
2022-11-26T12:25:26.400Z,86.35
2022-11-26T12:28:12.539Z,86.35
2022-11-26T12:31:02.191Z,85.74
2022-11-26T12:33:50.691Z,86.51
2022-11-26T12:36:31.310Z,86.40
2022-11-26T12:39:02.203Z,85.71
2022-11-26T12:41:33.432Z,90.62
2022-11-26T12:44:31.990Z,87.03
2022-11-26T12:47:00.322Z,89.70
2022-11-26T12:49:32.188Z,90.12
2022-11-26T12:52:12.149Z,90.32
2022-11-26T12:54:49.820Z,91.56
2022-11-26T12:57:28.520Z,89.51
2022-11-26T13:00:07.093Z,90.03
2022-11-26T13:02:43.160Z,90.78
2022-11-26T13:05:24.492Z,90.04
2022-11-26T13:08:09.121Z,91.97
2022-11-26T13:11:08.561Z,93.14
2022-11-26T13:14:00.891Z,94.02
2022-11-26T13:16:40.236Z,93.02
2022-11-26T13:19:17.529Z,93.30
2022-11-26T13:22:15.141Z,94.54
2022-11-26T13:24:56.747Z,94.36
2022-11-26T13:27:43.169Z,94.61
2022-11-26T13:30:37.624Z,90.75
2022-11-26T13:33:32.230Z,92.44
2022-11-26T13:36:12.731Z,92.98
2022-11-26T13:39:12.952Z,91.70
2022-11-26T13:41:47.749Z,93.12
2022-11-26T13:44:34.529Z,93.22
2022-11-26T13:47:18.070Z,92.70
2022-11-26T13:49:53.319Z,94.03
2022-11-26T13:52:40.262Z,93.71
2022-11-26T13:55:17.109Z,92.23
2022-11-26T14:00:30.255Z,90.30
2022-11-26T14:02:59.438Z,90.27
2022-11-26T14:05:49.200Z,90.79
2022-11-26T14:08:34.241Z,91.87
2022-11-26T14:11:02.279Z,91.10
2022-11-26T14:13:30.498Z,90.87
2022-11-26T14:16:01.458Z,91.88
2022-11-26T14:18:53.854Z,92.31
2022-11-26T14:21:23.058Z,90.42
2022-11-26T14:23:52.858Z,91.77
2022-11-26T14:26:29.500Z,89.63
2022-11-26T14:29:19.328Z,89.28
2022-11-26T14:31:52.568Z,89.80
2022-11-26T14:34:37.260Z,91.11
2022-11-26T14:37:14.519Z,88.71
2022-11-26T14:39:43.122Z,92.02
2022-11-26T14:42:18.310Z,93.50
2022-11-26T14:44:46.661Z,92.51
2022-11-26T14:47:21.989Z,92.75
2022-11-26T14:50:05.369Z,90.09
2022-11-26T14:52:36.061Z,91.90
2022-11-26T14:55:09.008Z,91.30
2022-11-26T14:58:23.448Z,91.09
2022-11-26T15:01:08.328Z,89.59
2022-11-26T15:03:36.380Z,89.33
2022-11-26T15:06:04.787Z,89.64
2022-11-26T15:08:32.870Z,89.44
2022-11-26T15:11:03.801Z,86.50
2022-11-26T15:13:38.318Z,86.30
2022-11-26T15:16:27.587Z,88.82
2022-11-26T15:18:58.099Z,87.65
2022-11-26T15:21:28.030Z,86.36
2022-11-26T15:23:58.644Z,86.96
2022-11-26T15:26:34.238Z,86.39
2022-11-26T15:29:03.445Z,86.16
2022-11-26T15:31:42.079Z,86.90
2022-11-26T15:34:13.071Z,87.00
2022-11-26T15:36:41.168Z,84.68
2022-11-26T15:39:25.599Z,83.02
2022-11-26T15:41:55.926Z,81.18
2022-11-26T15:44:26.571Z,83.62
2022-11-26T15:46:56.399Z,82.65
2022-11-26T15:49:32.179Z,84.17
2022-11-26T15:52:06.526Z,80.94
2022-11-26T15:55:04.675Z,80.12
2022-11-26T15:57:33.689Z,82.39
2022-11-26T16:00:24.380Z,80.34
2022-11-26T16:02:52.576Z,78.94
2022-11-26T16:05:30.061Z,78.48
2022-11-26T16:08:04.452Z,78.29
2022-11-26T16:10:35.871Z,79.68
2022-11-26T16:13:15.998Z,78.24
2022-11-26T16:16:04.120Z,79.56
2022-11-26T16:18:54.159Z,77.93
2022-11-26T16:21:32.999Z,79.41
2022-11-26T16:24:27.079Z,80.52
2022-11-26T16:27:01.521Z,81.67
2022-11-26T16:29:30.431Z,86.31
2022-11-26T16:31:58.681Z,83.44
2022-11-26T16:34:27.462Z,81.30
2022-11-26T16:37:04.511Z,84.54
2022-11-26T16:39:37.490Z,83.77
2022-11-26T16:42:18.490Z,82.15
2022-11-26T16:44:46.681Z,83.15
2022-11-26T16:47:30.038Z,84.21
2022-11-26T16:49:58.322Z,80.00
2022-11-26T16:52:26.621Z,82.50
2022-11-26T16:54:54.640Z,80.64
2022-11-26T16:57:24.288Z,79.73
2022-11-26T16:59:55.670Z,81.46
2022-11-26T17:02:24.525Z,83.67
2022-11-26T17:04:52.839Z,83.82
2022-11-26T17:07:25.145Z,84.58
2022-11-26T17:09:53.820Z,83.96
2022-11-26T17:12:24.148Z,83.59
2022-11-26T17:17:28.569Z,78.67
2022-11-26T17:19:57.097Z,80.30
2022-11-26T17:22:25.612Z,77.45
2022-11-26T17:24:53.499Z,81.24
2022-11-26T17:27:23.708Z,81.04
2022-11-26T17:29:51.900Z,80.10
2022-11-26T17:32:22.899Z,85.22
2022-11-26T17:34:52.398Z,83.39
2022-11-26T17:37:28.498Z,82.88
2022-11-26T17:39:57.226Z,84.31
2022-11-26T17:42:25.619Z,84.93
2022-11-26T17:44:54.892Z,84.14
2022-11-26T17:47:25.814Z,84.65
2022-11-26T17:49:54.547Z,84.52
2022-11-26T17:52:23.118Z,85.65
2022-11-26T17:54:51.485Z,85.89
2022-11-26T17:57:19.425Z,84.60
2022-11-26T17:59:47.529Z,85.14
2022-11-26T18:02:15.791Z,86.04
2022-11-26T18:04:44.108Z,89.15
2022-11-26T18:07:18.952Z,87.58
2022-11-26T18:09:47.749Z,88.91
2022-11-26T18:12:24.360Z,89.71
2022-11-26T18:14:54.561Z,88.79
2022-11-26T18:17:22.794Z,89.17
2022-11-26T18:19:51.134Z,87.74
2022-11-26T18:22:21.430Z,87.61
2022-11-26T18:24:57.224Z,88.68
2022-11-26T18:27:29.340Z,89.38
2022-11-26T18:29:57.240Z,88.43
2022-11-26T18:32:25.541Z,87.93
2022-11-26T18:34:53.686Z,88.27
2022-11-26T18:37:21.473Z,87.93
2022-11-26T18:39:49.620Z,87.24
2022-11-26T18:45:07.752Z,88.62
2022-11-26T18:47:35.644Z,87.46
2022-11-26T18:50:04.085Z,87.01
2022-11-26T18:52:32.542Z,86.96
2022-11-26T18:55:00.406Z,85.93
2022-11-26T18:57:28.238Z,87.02
2022-11-26T18:59:56.459Z,84.84
2022-11-26T19:02:24.479Z,85.99
2022-11-26T19:04:53.237Z,85.56
2022-11-26T19:07:21.629Z,85.98
2022-11-26T19:09:49.599Z,85.86
2022-11-26T19:12:17.932Z,85.83
2022-11-26T19:14:46.139Z,85.56
2022-11-26T19:17:14.024Z,85.77
2022-11-26T19:19:42.224Z,86.01
2022-11-26T19:22:10.539Z,85.81
2022-11-26T19:24:38.389Z,82.44
2022-11-26T19:27:06.244Z,83.54
2022-11-26T19:29:34.452Z,85.84
2022-11-26T19:32:02.270Z,86.66
2022-11-26T19:34:30.169Z,84.86
2022-11-26T19:36:58.593Z,85.51
2022-11-26T19:39:26.450Z,83.70
2022-11-26T19:41:54.630Z,84.53
2022-11-26T19:44:23.062Z,84.59
2022-11-26T19:46:50.967Z,82.87
2022-11-26T19:49:18.907Z,85.62
2022-11-26T19:51:47.219Z,87.06
2022-11-26T19:54:15.120Z,87.25
2022-11-26T19:56:43.379Z,87.24
2022-11-26T19:59:11.642Z,86.92
2022-11-26T20:01:39.635Z,85.98
2022-11-26T20:04:12.042Z,83.25
2022-11-26T20:06:40.169Z,80.84
2022-11-26T20:09:11.082Z,81.47
2022-11-26T20:11:40.191Z,82.23
2022-11-26T20:14:11.989Z,84.70
2022-11-26T20:16:43.330Z,85.46
2022-11-26T20:19:11.500Z,84.83
2022-11-26T20:21:39.991Z,84.52
2022-11-26T20:24:13.029Z,85.10
2022-11-26T20:26:42.741Z,85.76
2022-11-26T20:29:13.100Z,85.73
2022-11-26T20:31:46.000Z,86.81
2022-11-26T20:34:15.449Z,86.69
2022-11-26T20:36:44.330Z,86.11
2022-11-26T20:39:14.681Z,86.84
2022-11-26T20:41:42.560Z,85.22
2022-11-26T20:44:12.461Z,83.70
2022-11-26T20:46:40.820Z,83.89
2022-11-26T20:49:11.778Z,82.74
2022-11-26T20:51:40.028Z,84.12
2022-11-26T20:54:07.920Z,83.76
2022-11-26T20:56:35.867Z,83.97
2022-11-26T20:59:04.373Z,84.20
2022-11-26T21:01:32.617Z,84.45
2022-11-26T21:04:01.431Z,83.33
2022-11-26T21:06:30.751Z,83.73
2022-11-26T21:09:03.472Z,82.87
2022-11-26T21:11:31.754Z,83.76
2022-11-26T21:14:01.740Z,82.65
2022-11-26T21:16:30.649Z,84.13
2022-11-26T21:19:00.011Z,83.65
2022-11-26T21:21:28.729Z,84.54
2022-11-26T21:23:57.199Z,82.91
2022-11-26T21:26:26.470Z,81.55
2022-11-26T21:28:58.969Z,82.39
2022-11-26T21:31:29.010Z,82.79
2022-11-26T21:34:01.141Z,84.63
2022-11-26T21:36:30.960Z,86.02
2022-11-26T21:39:00.589Z,84.09
2022-11-26T21:41:28.581Z,83.52
2022-11-26T21:43:57.035Z,84.72
2022-11-26T21:46:26.519Z,84.60
2022-11-26T21:48:55.722Z,84.67
2022-11-26T21:51:29.191Z,85.79
2022-11-26T21:53:58.825Z,83.83
2022-11-26T21:56:29.923Z,84.31
2022-11-26T21:58:59.411Z,84.72
2022-11-26T22:01:33.220Z,83.98
2022-11-26T22:04:11.144Z,82.65
2022-11-26T22:06:39.171Z,83.67
2022-11-26T22:09:08.419Z,81.12
2022-11-26T22:11:39.640Z,80.15
2022-11-26T22:14:08.400Z,79.91
2022-11-26T22:16:36.712Z,81.29
2022-11-26T22:19:05.100Z,83.32
2022-11-26T22:21:36.046Z,84.33
2022-11-26T22:24:04.969Z,81.87
2022-11-26T22:26:33.413Z,82.69
2022-11-26T22:29:01.270Z,84.46
2022-11-26T22:31:31.634Z,83.67
2022-11-26T22:34:01.239Z,85.12
2022-11-26T22:36:29.628Z,82.41
2022-11-26T22:38:58.942Z,82.56
2022-11-26T22:41:27.320Z,82.55
2022-11-26T22:43:55.342Z,83.05
2022-11-26T22:46:23.949Z,82.42
2022-11-26T22:48:54.538Z,83.01
2022-11-26T22:51:23.459Z,83.15
2022-11-26T22:53:58.429Z,85.33
2022-11-26T22:56:27.020Z,82.57
2022-11-26T22:58:55.181Z,86.70
2022-11-26T23:01:30.949Z,85.72
2022-11-26T23:04:00.891Z,86.40
2022-11-26T23:06:30.390Z,87.63
2022-11-26T23:08:59.418Z,87.18
2022-11-26T23:11:39.830Z,88.46
2022-11-26T23:14:09.628Z,89.03
2022-11-26T23:16:40.508Z,88.23
2022-11-26T23:19:08.591Z,88.96
2022-11-26T23:21:40.231Z,89.04
2022-11-26T23:24:08.962Z,87.26
2022-11-26T23:26:38.640Z,86.24
2022-11-26T23:29:07.673Z,87.23
2022-11-26T23:31:41.570Z,86.69
2022-11-26T23:34:10.640Z,86.14
2022-11-26T23:36:39.120Z,86.74
2022-11-26T23:39:08.928Z,85.72
2022-11-26T23:41:37.120Z,85.73
2022-11-26T23:44:05.570Z,84.84
2022-11-26T23:46:35.560Z,83.94
2022-11-26T23:49:04.291Z,83.53
2022-11-26T23:51:33.569Z,82.97
2022-11-26T23:54:01.722Z,84.00
2022-11-26T23:56:32.503Z,84.82
2022-11-26T23:59:03.114Z,85.14
